createdAt,value
2022-07-29T00:01:04.701Z,1.98
2022-07-29T00:03:31.839Z,2.20
2022-07-29T00:05:58.931Z,1.85
2022-07-29T00:08:30.050Z,1.98
2022-07-29T00:10:56.942Z,2.20
2022-07-29T00:13:32.249Z,2.30
2022-07-29T00:16:04.364Z,1.63
2022-07-29T00:18:32.999Z,2.13
2022-07-29T00:21:00.455Z,2.08
2022-07-29T00:23:27.428Z,1.88
2022-07-29T00:25:54.436Z,1.92
2022-07-29T00:28:21.393Z,2.00
2022-07-29T00:30:48.339Z,1.70
2022-07-29T00:33:15.267Z,1.95
2022-07-29T00:35:44.838Z,1.88
2022-07-29T00:38:17.111Z,2.45
2022-07-29T00:40:45.344Z,2.03
2022-07-29T00:43:14.742Z,2.20
2022-07-29T00:45:42.846Z,1.60
2022-07-29T00:48:10.333Z,2.00
2022-07-29T00:50:38.475Z,1.67
2022-07-29T00:53:08.085Z,2.17
2022-07-29T00:55:36.400Z,2.20
2022-07-29T00:58:03.665Z,1.85
2022-07-29T01:00:31.277Z,1.75
2022-07-29T01:02:58.549Z,1.83
2022-07-29T01:05:50.811Z,2.00
2022-07-29T01:08:18.432Z,2.13
2022-07-29T01:10:47.930Z,1.48
2022-07-29T01:13:16.952Z,2.45
2022-07-29T01:16:00.668Z,1.85
2022-07-29T01:18:39.151Z,2.33
2022-07-29T01:21:37.746Z,2.03
2022-07-29T01:24:51.232Z,2.30
2022-07-29T01:30:05.119Z,1.38
2022-07-29T01:32:37.281Z,1.95
2022-07-29T01:35:13.447Z,1.30
2022-07-29T01:38:13.730Z,1.80
2022-07-29T01:40:52.819Z,1.40
2022-07-29T01:43:34.115Z,1.30
2022-07-29T01:46:06.776Z,1.70
2022-07-29T01:48:57.324Z,1.45
2022-07-29T01:51:37.336Z,1.60
2022-07-29T01:54:22.370Z,1.73
2022-07-29T01:56:53.223Z,1.88
2022-07-29T01:59:22.107Z,1.42
2022-07-29T02:01:51.326Z,1.45
2022-07-29T02:04:29.181Z,2.08
2022-07-29T02:07:03.292Z,1.83
2022-07-29T02:09:32.960Z,1.90
2022-07-29T02:12:02.375Z,1.30
2022-07-29T02:14:40.394Z,1.58
2022-07-29T02:17:07.709Z,1.70
2022-07-29T02:19:35.421Z,1.63
2022-07-29T02:22:03.168Z,1.80
2022-07-29T02:24:32.190Z,1.92
2022-07-29T02:27:02.006Z,1.35
2022-07-29T02:29:31.275Z,1.63
2022-07-29T02:32:00.427Z,1.83
2022-07-29T02:34:29.313Z,1.50
2022-07-29T02:36:57.507Z,1.58
2022-07-29T02:39:26.797Z,1.88
2022-07-29T02:41:59.988Z,1.65
2022-07-29T02:44:32.616Z,1.80
2022-07-29T02:47:17.357Z,2.08
2022-07-29T02:52:48.744Z,1.38
2022-07-29T02:55:22.386Z,1.30
2022-07-29T02:57:55.706Z,1.42
2022-07-29T03:00:28.499Z,1.50
2022-07-29T03:05:28.624Z,1.50
2022-07-29T03:08:03.461Z,1.67
2022-07-29T03:10:32.369Z,1.88
2022-07-29T03:13:00.156Z,1.80
2022-07-29T03:15:28.095Z,1.70
2022-07-29T03:17:58.440Z,1.70
2022-07-29T03:20:33.740Z,1.95
2022-07-29T03:23:00.912Z,2.08
2022-07-29T03:25:28.335Z,1.60
2022-07-29T03:27:55.462Z,1.80
2022-07-29T03:30:22.660Z,2.00
2022-07-29T03:32:52.679Z,1.88
2022-07-29T03:35:21.412Z,1.92
2022-07-29T03:37:48.933Z,2.33
2022-07-29T03:40:27.086Z,1.90
2022-07-29T03:42:57.203Z,2.30
2022-07-29T03:45:25.035Z,1.98
2022-07-29T03:48:00.670Z,1.90
2022-07-29T03:50:31.229Z,2.30
2022-07-29T03:52:59.001Z,2.10
2022-07-29T03:55:27.556Z,1.92
2022-07-29T03:57:56.272Z,1.80
2022-07-29T04:00:25.531Z,1.77
2022-07-29T04:02:52.596Z,1.63
2022-07-29T04:05:20.265Z,1.50
2022-07-29T04:07:50.444Z,1.77
2022-07-29T04:10:30.401Z,2.20
2022-07-29T04:13:00.455Z,2.42
2022-07-29T04:15:31.078Z,2.60
2022-07-29T04:17:59.684Z,1.92
2022-07-29T04:20:26.854Z,1.65
2022-07-29T04:22:53.825Z,2.20
2022-07-29T04:25:21.024Z,1.60
2022-07-29T04:28:03.274Z,2.25
2022-07-29T04:30:32.001Z,1.80
2022-07-29T04:32:59.536Z,1.83
2022-07-29T04:35:26.567Z,1.95
2022-07-29T04:37:53.640Z,1.60
2022-07-29T04:40:20.912Z,1.85
2022-07-29T04:42:48.061Z,2.10
2022-07-29T04:45:16.735Z,1.90
2022-07-29T04:47:50.013Z,2.25
2022-07-29T04:50:17.587Z,1.80
2022-07-29T04:52:44.537Z,1.73
2022-07-29T04:55:11.788Z,1.92
2022-07-29T04:57:38.704Z,2.25
2022-07-29T05:00:07.297Z,2.33
2022-07-29T05:02:34.276Z,1.92
2022-07-29T05:05:01.190Z,1.70
2022-07-29T05:07:28.177Z,2.00
2022-07-29T05:09:57.787Z,2.70
2022-07-29T05:12:26.226Z,1.92
2022-07-29T05:14:54.342Z,2.00
2022-07-29T05:17:21.434Z,2.35
2022-07-29T05:19:48.287Z,1.90
2022-07-29T05:22:15.200Z,2.50
2022-07-29T05:24:42.269Z,2.28
2022-07-29T05:27:11.631Z,1.95
2022-07-29T05:29:45.936Z,1.92
2022-07-29T05:32:14.213Z,2.30
2022-07-29T05:34:51.263Z,2.22
2022-07-29T05:37:20.667Z,2.28
2022-07-29T05:39:50.694Z,1.83
2022-07-29T05:42:25.452Z,1.70
2022-07-29T05:44:53.243Z,1.80
2022-07-29T05:47:20.321Z,2.28
2022-07-29T05:49:47.308Z,2.28
2022-07-29T05:52:14.335Z,2.03
2022-07-29T05:54:41.418Z,1.80
2022-07-29T05:57:08.632Z,1.58
2022-07-29T05:59:38.853Z,1.80
2022-07-29T06:02:06.371Z,1.77
2022-07-29T06:04:34.789Z,1.88
2022-07-29T06:07:02.685Z,1.40
2022-07-29T06:09:29.970Z,1.95
2022-07-29T06:11:58.239Z,2.08
2022-07-29T06:14:26.067Z,1.80
2022-07-29T06:16:54.148Z,1.80
2022-07-29T06:19:21.209Z,1.70
2022-07-29T06:21:48.987Z,1.50
2022-07-29T06:24:16.818Z,1.80
2022-07-29T06:26:44.414Z,1.70
2022-07-29T06:29:11.999Z,1.73
2022-07-29T06:31:39.590Z,1.52
2022-07-29T06:34:07.265Z,1.42
2022-07-29T06:36:38.134Z,1.27
2022-07-29T06:39:11.691Z,1.48
2022-07-29T06:44:06.055Z,1.10
2022-07-29T06:46:33.626Z,1.23
2022-07-29T06:49:02.798Z,1.20
2022-07-29T06:51:30.195Z,1.10
2022-07-29T06:54:02.712Z,1.15
2022-07-29T06:56:42.697Z,1.20
2022-07-29T06:59:11.331Z,1.42
2022-07-29T07:01:41.327Z,1.30
2022-07-29T07:04:09.956Z,1.40
2022-07-29T07:06:38.027Z,1.42
2022-07-29T07:09:05.205Z,1.58
2022-07-29T07:11:32.216Z,1.50
2022-07-29T07:14:02.983Z,1.75
2022-07-29T07:16:30.957Z,1.65
2022-07-29T07:18:57.910Z,1.50
2022-07-29T07:21:24.887Z,1.65
2022-07-29T07:23:51.900Z,1.65
2022-07-29T07:26:18.874Z,1.90
2022-07-29T07:28:45.841Z,1.20
2022-07-29T07:31:13.441Z,1.35
2022-07-29T07:33:40.341Z,1.50
2022-07-29T07:36:07.233Z,1.20
2022-07-29T07:38:34.266Z,1.35
2022-07-29T07:41:01.981Z,1.42
2022-07-29T07:43:28.881Z,1.80
2022-07-29T07:45:55.915Z,1.90
2022-07-29T07:48:22.996Z,1.98
2022-07-29T07:50:50.344Z,1.65
2022-07-29T07:53:17.525Z,1.67
2022-07-29T07:56:09.535Z,2.17
2022-07-29T07:58:31.993Z,1.90
2022-07-29T08:00:58.970Z,1.77
2022-07-29T08:03:25.898Z,1.95
2022-07-29T08:05:52.895Z,2.35
2022-07-29T08:08:20.015Z,2.05
2022-07-29T08:10:53.232Z,1.92
2022-07-29T08:13:28.280Z,1.63
2022-07-29T08:15:58.974Z,1.55
2022-07-29T08:18:28.331Z,1.70
2022-07-29T08:20:56.062Z,1.73
2022-07-29T08:23:24.115Z,1.52
2022-07-29T08:25:52.437Z,1.38
2022-07-29T08:28:22.171Z,1.95
2022-07-29T08:30:53.448Z,1.80
2022-07-29T08:33:20.475Z,1.42
2022-07-29T08:35:47.394Z,1.30
2022-07-29T08:38:14.738Z,1.75
2022-07-29T08:40:41.767Z,1.92
2022-07-29T08:43:10.057Z,1.50
2022-07-29T08:45:48.938Z,1.50
2022-07-29T08:48:19.604Z,1.50
2022-07-29T08:50:48.659Z,1.35
2022-07-29T08:53:18.681Z,1.52
2022-07-29T08:55:55.536Z,1.38
2022-07-29T08:58:25.977Z,1.70
2022-07-29T09:00:57.998Z,1.63
2022-07-29T09:03:31.234Z,1.40
2022-07-29T09:06:00.264Z,1.30
2022-07-29T09:08:29.803Z,2.00
2022-07-29T09:11:01.015Z,1.60
2022-07-29T09:13:33.544Z,1.77
2022-07-29T09:16:54.324Z,1.40
2022-07-29T09:19:27.958Z,1.33
2022-07-29T09:22:14.193Z,1.17
2022-07-29T09:24:48.351Z,1.58
2022-07-29T09:27:27.605Z,1.33
2022-07-29T09:30:31.703Z,1.63
2022-07-29T09:33:10.078Z,1.52
2022-07-29T09:35:56.427Z,2.05
2022-07-29T09:38:57.671Z,1.48
2022-07-29T09:41:44.332Z,1.60
2022-07-29T09:44:41.530Z,1.83
2022-07-29T09:47:22.726Z,1.60
2022-07-29T09:50:05.447Z,1.60
2022-07-29T09:52:43.235Z,1.60
2022-07-29T09:55:18.124Z,1.38
2022-07-29T09:57:51.818Z,1.20
2022-07-29T10:00:20.954Z,1.02
2022-07-29T10:02:49.418Z,1.60
2022-07-29T10:05:25.919Z,1.50
2022-07-29T10:07:57.978Z,1.13
2022-07-29T10:10:25.256Z,1.27
2022-07-29T10:12:52.652Z,1.13
2022-07-29T10:15:21.570Z,1.13
2022-07-29T10:17:49.095Z,1.13
2022-07-29T10:20:17.370Z,1.20
2022-07-29T10:22:52.933Z,0.95
2022-07-29T10:25:21.630Z,1.20
2022-07-29T10:27:49.690Z,1.30
2022-07-29T10:30:18.332Z,1.30
2022-07-29T10:33:28.726Z,1.10
2022-07-29T10:35:58.801Z,1.13
2022-07-29T10:38:48.499Z,1.10
2022-07-29T10:41:27.617Z,1.23
2022-07-29T10:44:23.109Z,1.17
2022-07-29T10:46:52.819Z,1.27
2022-07-29T10:49:24.999Z,1.23
2022-07-29T10:52:07.109Z,1.90
2022-07-29T10:54:37.386Z,1.20
2022-07-29T10:57:16.716Z,1.17
2022-07-29T10:59:53.072Z,1.10
2022-07-29T11:02:41.824Z,1.00
2022-07-29T11:05:20.471Z,1.40
2022-07-29T11:08:21.095Z,1.20
2022-07-29T11:11:29.674Z,0.90
2022-07-29T11:14:04.885Z,1.00
2022-07-29T11:17:19.376Z,1.00
2022-07-29T11:20:43.390Z,0.95
2022-07-29T11:24:28.621Z,1.30
2022-07-29T11:31:29.349Z,1.10
2022-07-29T11:34:34.860Z,0.80
2022-07-29T11:38:23.498Z,0.90
2022-07-29T11:41:42.826Z,0.90
2022-07-29T11:45:44.231Z,0.90
2022-07-29T11:52:06.838Z,0.90
2022-07-29T11:59:33.100Z,0.75
2022-07-29T12:02:37.511Z,0.95
2022-07-29T12:05:11.994Z,0.77
2022-07-29T12:08:04.922Z,0.80
2022-07-29T12:10:33.218Z,0.98
2022-07-29T12:36:06.781Z,1.08
2022-07-29T12:38:41.451Z,1.30
2022-07-29T12:41:09.900Z,0.95
2022-07-29T12:43:36.855Z,0.73
2022-07-29T12:46:17.187Z,0.80
2022-07-29T12:48:45.340Z,0.90
2022-07-29T12:51:15.176Z,1.13
2022-07-29T12:53:42.443Z,0.90
2022-07-29T12:56:40.529Z,1.10
2022-07-29T12:59:33.747Z,0.70
2022-07-29T13:02:01.444Z,0.90
2022-07-29T13:04:31.254Z,0.70
2022-07-29T13:07:08.511Z,0.77
2022-07-29T13:09:43.895Z,0.80
2022-07-29T13:12:14.428Z,0.98
2022-07-29T13:14:47.510Z,0.77
2022-07-29T13:17:17.756Z,0.60
2022-07-29T13:19:52.205Z,0.90
2022-07-29T13:22:24.078Z,0.70
2022-07-29T13:25:00.161Z,0.88
2022-07-29T13:27:30.706Z,0.82
2022-07-29T13:30:00.526Z,0.60
2022-07-29T13:32:30.658Z,0.70
2022-07-29T13:35:00.416Z,0.90
2022-07-29T13:37:30.720Z,0.82
2022-07-29T13:39:58.415Z,0.90
2022-07-29T13:42:25.934Z,0.80
2022-07-29T13:44:53.402Z,0.80
2022-07-29T13:47:21.540Z,0.77
2022-07-29T13:49:49.634Z,0.80
2022-07-29T13:52:17.022Z,0.80
2022-07-29T13:54:47.522Z,0.82
2022-07-29T13:57:15.586Z,0.80
2022-07-29T13:59:43.461Z,0.73
2022-07-29T14:02:13.173Z,0.90
2022-07-29T14:04:42.605Z,0.50
2022-07-29T14:07:11.089Z,0.70
2022-07-29T14:09:43.687Z,0.60
2022-07-29T14:12:11.046Z,0.95
2022-07-29T14:14:38.114Z,0.60
2022-07-29T14:17:07.611Z,0.82
2022-07-29T14:19:40.005Z,0.70
2022-07-29T14:22:09.017Z,0.60
2022-07-29T14:24:37.791Z,0.50
2022-07-29T14:27:07.236Z,0.70
2022-07-29T14:29:38.168Z,0.60
2022-07-29T14:32:10.209Z,0.70
2022-07-29T14:34:38.826Z,0.60
2022-07-29T14:37:07.262Z,0.80
2022-07-29T14:39:42.588Z,0.73
2022-07-29T14:42:12.841Z,0.80
2022-07-29T14:44:42.644Z,0.63
2022-07-29T14:47:10.481Z,0.70
2022-07-29T14:49:37.592Z,0.60
2022-07-29T14:52:05.139Z,0.70
2022-07-29T14:54:33.969Z,0.68
2022-07-29T14:57:01.822Z,0.60
2022-07-29T14:59:29.295Z,0.95
2022-07-29T15:01:57.023Z,0.80
2022-07-29T15:04:24.579Z,0.50
2022-07-29T15:06:52.822Z,0.60
2022-07-29T15:09:20.270Z,0.60
2022-07-29T15:11:47.667Z,0.68
2022-07-29T15:14:14.950Z,0.82
2022-07-29T15:16:43.974Z,0.50
2022-07-29T15:19:14.215Z,0.68
2022-07-29T15:21:48.645Z,0.57
2022-07-29T15:24:18.034Z,1.00
2022-07-29T15:26:45.559Z,0.60
2022-07-29T15:29:13.030Z,0.60
2022-07-29T15:31:40.676Z,0.60
2022-07-29T15:34:08.747Z,0.50
2022-07-29T15:36:51.495Z,0.80
2022-07-29T15:39:20.078Z,0.60
2022-07-29T15:41:47.591Z,0.60
2022-07-29T15:44:14.854Z,0.70
2022-07-29T15:47:01.753Z,0.77
2022-07-29T15:49:48.559Z,0.70
2022-07-29T15:52:19.026Z,0.70
2022-07-29T15:54:53.783Z,0.80
2022-07-29T15:57:21.094Z,0.70
2022-07-29T15:59:48.512Z,0.73
2022-07-29T16:02:15.795Z,0.68
2022-07-29T16:04:43.071Z,0.60
2022-07-29T16:07:14.308Z,0.60
2022-07-29T16:09:42.544Z,0.90
2022-07-29T16:12:14.895Z,0.75
2022-07-29T16:14:45.432Z,0.45
2022-07-29T16:17:14.413Z,0.75
2022-07-29T16:19:43.645Z,0.63
2022-07-29T16:22:11.576Z,0.82
2022-07-29T16:24:39.267Z,0.40
2022-07-29T16:27:06.976Z,0.70
2022-07-29T16:29:34.314Z,0.70
2022-07-29T16:32:01.966Z,0.60
2022-07-29T16:34:29.792Z,0.70
2022-07-29T16:36:57.176Z,0.80
2022-07-29T16:39:24.465Z,0.70
2022-07-29T16:41:51.973Z,0.70
2022-07-29T16:44:19.356Z,0.98
2022-07-29T16:46:46.857Z,0.60
2022-07-29T16:49:19.520Z,0.63
2022-07-29T16:51:47.955Z,0.60
2022-07-29T16:54:15.534Z,1.05
2022-07-29T16:56:45.668Z,0.90
2022-07-29T16:59:12.980Z,0.70
2022-07-29T17:01:40.339Z,0.60
2022-07-29T17:04:07.773Z,0.70
2022-07-29T17:06:39.031Z,0.80
2022-07-29T17:09:08.857Z,0.40
2022-07-29T17:11:52.349Z,0.60
2022-07-29T17:14:23.981Z,1.00
2022-07-29T17:17:00.379Z,0.75
2022-07-29T17:19:30.041Z,0.60
2022-07-29T17:22:06.400Z,0.70
2022-07-29T17:24:38.111Z,0.70
2022-07-29T17:27:05.702Z,0.73
2022-07-29T17:29:34.796Z,0.63
2022-07-29T17:32:02.257Z,0.70
2022-07-29T17:34:29.563Z,1.05
2022-07-29T17:36:57.428Z,0.70
2022-07-29T17:39:24.940Z,1.00
2022-07-29T17:41:52.327Z,0.88
2022-07-29T17:44:19.793Z,0.90
2022-07-29T17:46:47.545Z,1.65
2022-07-29T17:49:15.027Z,0.85
2022-07-29T17:51:42.337Z,1.08
2022-07-29T17:54:09.803Z,0.88
2022-07-29T17:56:37.228Z,1.00
2022-07-29T17:59:06.668Z,0.80
2022-07-29T18:01:34.279Z,1.13
2022-07-29T18:04:02.848Z,0.95
2022-07-29T18:06:29.872Z,1.05
2022-07-29T18:08:56.888Z,1.10
2022-07-29T18:11:24.063Z,1.30
2022-07-29T18:13:51.341Z,1.15
2022-07-29T18:16:18.917Z,0.93
2022-07-29T18:18:46.287Z,1.10
2022-07-29T18:21:13.575Z,1.23
2022-07-29T18:23:40.668Z,0.98
2022-07-29T18:26:07.758Z,1.33
2022-07-29T18:28:34.792Z,1.13
2022-07-29T18:31:02.516Z,0.93
2022-07-29T18:33:29.508Z,1.38
2022-07-29T18:36:07.632Z,1.30
2022-07-29T18:38:40.936Z,1.40
2022-07-29T18:41:08.035Z,2.00
2022-07-29T18:43:35.101Z,1.38
2022-07-29T18:46:03.155Z,1.40
2022-07-29T18:48:32.143Z,1.42
2022-07-29T18:50:58.987Z,1.92
2022-07-29T18:53:25.930Z,1.90
2022-07-29T18:55:55.357Z,1.67
2022-07-29T18:58:24.289Z,1.67
2022-07-29T19:00:51.216Z,1.98
2022-07-29T19:03:18.218Z,1.85
2022-07-29T19:05:45.123Z,2.08
2022-07-29T19:08:12.210Z,1.55
2022-07-29T19:10:48.647Z,2.30
2022-07-29T19:13:15.759Z,1.60
2022-07-29T19:15:44.334Z,1.63
2022-07-29T19:18:13.308Z,1.67
2022-07-29T19:20:41.907Z,1.60
2022-07-29T19:23:09.303Z,2.03
2022-07-29T19:25:37.431Z,1.75
2022-07-29T19:28:20.411Z,2.08
2022-07-29T19:30:47.350Z,1.65
2022-07-29T19:33:17.369Z,1.83
2022-07-29T19:35:45.817Z,1.70
2022-07-29T19:38:13.666Z,1.98
2022-07-29T19:40:40.696Z,1.67
2022-07-29T19:43:51.658Z,1.60
2022-07-29T19:45:55.516Z,1.70
2022-07-29T19:48:22.529Z,1.70
2022-07-29T19:50:49.461Z,1.45
2022-07-29T19:53:16.373Z,2.25
2022-07-29T19:55:43.440Z,1.83
2022-07-29T19:58:10.293Z,2.70
2022-07-29T20:00:37.552Z,1.70
2022-07-29T20:03:07.095Z,1.90
2022-07-29T20:05:34.269Z,1.40
2022-07-29T20:08:04.735Z,1.90
2022-07-29T20:10:32.729Z,1.85
2022-07-29T20:12:59.888Z,1.92
2022-07-29T20:15:27.139Z,1.98
2022-07-29T20:17:57.153Z,1.98
2022-07-29T20:20:25.640Z,2.10
2022-07-29T20:22:53.562Z,1.98
2022-07-29T20:25:20.441Z,1.90
2022-07-29T20:27:49.537Z,1.90
2022-07-29T20:30:16.614Z,1.83
2022-07-29T20:32:45.258Z,2.00
2022-07-29T20:35:13.357Z,1.92
2022-07-29T20:37:52.281Z,2.00
2022-07-29T20:40:27.159Z,2.33
2022-07-29T20:42:55.500Z,1.90
2022-07-29T20:45:23.692Z,2.17
2022-07-29T20:47:52.058Z,2.28
2022-07-29T20:50:23.653Z,2.35
2022-07-29T20:52:51.779Z,1.52
2022-07-29T20:55:18.786Z,1.88
2022-07-29T20:57:45.718Z,2.25
2022-07-29T21:00:13.395Z,1.90
2022-07-29T21:02:40.409Z,1.67
2022-07-29T21:05:07.727Z,2.28
2022-07-29T21:07:34.708Z,1.98
2022-07-29T21:10:01.773Z,2.78
2022-07-29T21:12:30.156Z,2.00
2022-07-29T21:14:57.820Z,1.50
2022-07-29T21:17:25.175Z,1.80
2022-07-29T21:19:53.227Z,1.92
2022-07-29T21:22:22.162Z,1.90
2022-07-29T21:24:49.539Z,1.90
2022-07-29T21:27:38.428Z,1.90
2022-07-29T21:30:08.507Z,2.00
2022-07-29T21:32:35.490Z,2.22
2022-07-29T21:35:02.517Z,2.30
2022-07-29T21:37:29.466Z,1.63
2022-07-29T21:39:56.457Z,1.80
2022-07-29T21:42:23.452Z,1.95
2022-07-29T21:44:51.718Z,2.17
2022-07-29T21:47:18.891Z,1.77
2022-07-29T21:49:50.198Z,2.20
2022-07-29T21:52:18.269Z,1.70
2022-07-29T21:54:45.205Z,1.80
2022-07-29T21:57:12.140Z,1.65
2022-07-29T21:59:39.194Z,1.63
2022-07-29T22:02:06.147Z,2.08
2022-07-29T22:04:34.704Z,1.40
2022-07-29T22:07:02.479Z,1.67
2022-07-29T22:09:29.613Z,2.10
2022-07-29T22:11:56.478Z,1.77
2022-07-29T22:14:23.641Z,1.70
2022-07-29T22:16:52.621Z,2.10
2022-07-29T22:19:27.656Z,1.90
2022-07-29T22:21:56.866Z,1.90
2022-07-29T22:24:23.835Z,1.95
2022-07-29T22:26:50.791Z,1.60
2022-07-29T22:29:18.866Z,1.80
2022-07-29T22:31:45.837Z,1.63
2022-07-29T22:34:15.346Z,1.92
2022-07-29T22:36:43.330Z,1.52
2022-07-29T22:39:10.206Z,1.63
2022-07-29T22:41:37.340Z,1.73
2022-07-29T22:44:04.531Z,1.75
2022-07-29T22:46:34.057Z,2.22
2022-07-29T22:49:01.468Z,1.85
2022-07-29T22:51:28.441Z,1.83
2022-07-29T22:53:55.314Z,2.10
2022-07-29T22:56:22.631Z,1.90
2022-07-29T22:58:50.227Z,1.60
2022-07-29T23:01:17.894Z,1.73
2022-07-29T23:04:05.253Z,1.92
2022-07-29T23:06:32.318Z,1.90
2022-07-29T23:08:59.176Z,1.65
2022-07-29T23:11:26.111Z,1.55
2022-07-29T23:13:53.183Z,2.10
2022-07-29T23:16:26.363Z,2.05
2022-07-29T23:18:54.819Z,2.08
2022-07-29T23:21:21.876Z,1.50
2022-07-29T23:23:49.361Z,2.55
2022-07-29T23:26:17.134Z,1.67
2022-07-29T23:28:45.395Z,1.90
2022-07-29T23:31:13.558Z,1.73
2022-07-29T23:33:41.693Z,2.15
2022-07-29T23:36:08.608Z,1.80
2022-07-29T23:38:36.546Z,1.63
2022-07-29T23:41:08.874Z,1.98
2022-07-29T23:43:37.458Z,1.77
2022-07-29T23:46:04.994Z,1.85
2022-07-29T23:48:34.052Z,1.83
2022-07-29T23:51:01.182Z,1.65
2022-07-29T23:53:28.761Z,2.10
2022-07-29T23:55:56.533Z,2.08
2022-07-29T23:58:23.782Z,1.90
